Burnwell, AL (35038)

10:06 PM CST on March 04, 2015 (GMT -0600)
Walker County-Bevill | Change Station
CLOSE
Current Station
Airport
Location: Jasper,
Elevation: 482 ft
Nearby Weather Stations
Active Advisory: Winter Storm Warning

Elev 482 ft 33.90 °N, 87.31 °W | Updated 11 minutes ago

Overcast
Overcast
46 °F
Feels Like 42 °F
N
8
Wind Variable Wind from NE

Today
High -- | Low -- °F
--% Chance of Precip.
Yesterday
High -- | Low -- °F
Precip. -- in
6:14 AM 5:48 PM
Full, 100% visible
Pressure 29.97 in
Visibility 10.0 miles
Clouds Overcast 1000 ft
Windchill 42 °F
Dew Point 43 °F
Humidity 87%
Rainfall 0.00 in
Snow Depth Not available.
UV 0 out of 12
Pollen 8.00 out of 12
Air Quality Not available.
Flu Activity Not available.
METAR KJFX 050355Z AUTO 04007KT 10SM OVC010 08/06 A2997 RMK A02 P-128

More Conditions Fewer Conditions

Pressure 29.97 in
Visibility 10.0 miles
Clouds Overcast 1000 ft
Windchill 42 °F
Dew Point 43 °F
Humidity 87%
Rainfall 0.00 in
Snow Depth Not available.
UV 0 out of 12
Pollen 8.00 out of 12
Air Quality Not available.
Flu Activity Not available.
METAR KJFX 050355Z AUTO 04007KT 10SM OVC010 08/06 A2997 RMK A02 P-128

More Conditions Fewer Conditions

10-Day Weather Forecast

Almanac

Astronomy

Mar. 04, 2015 Rise Set
Actual Time
Civil Twilight
Nautical Twilight
Astronomical Twilight
Moon
Length of Visible Light
Length of Day
Tomorrow will be .
, % of the Moon is Illuminated

Today's Extremes

State Highs State Lows

Community

WunderPhotos

Upload Photos

1,802,667 photos uploaded!

WunderBlogs® & News

Nearby

Air Quality

  Air Quality AQ Index Pollutant
Not available.

Snow Depth

Station Depth Elevation

Earthquake Activity

City Distance Mag. Time & Date
Minimum magnitude displayed is 2.5.

Coastal Water Temperatures

Place Temperature

Nearby Weather Stations

Winter Storm Warning
Statement as of 8:39 PM CST on March 04, 2015

... Winter Storm Warning remains in effect from 3 am to 3 PM CST
Thursday...

* event... significant accumulating ice in the warned area... with
minor sleet accumulations possible as well.

* Timing... from 3 am Thursday morning through 3 PM Thursday
afternoon.

* Location... areas along and north of a line from Millport... to
Cordova... to Oneonta.

* Accumulations... ice totals of up to three-tenths of an inch will
be possible with sleet accumulations up to two-tenths of an inch.

Precautionary/preparedness actions...

This Winter Storm Warning means severe winter weather conditions
are expected or occurring. Significant amounts of ice
accumulations and some sleet... will make travel dangerous or
impossible. Travel is strongly discouraged. Commerce will likely
be severely impacted. If you must travel... keep an extra
flashlight... food... and water in your vehicle in case of an
emergency.